Time;durP1;ratioP1;P1;durP2;ratioP2;P2;SDS_P1;SDS_P2;PMS_P1;PMS_P2;Temp;Humidity;BMP_temperature;BMP_pressure;BME280_temperature;BME280_humidity;BME280_pressure;Samples;Min_cycle;Max_cycle;Signal;HPM_P1;HPM_P2
2021/04/02 00:00:59;;;;;;;;;;;;;;;2.82;100.00;100397.66;5099362;28;20014;-82
2021/04/02 00:03:30;;;;;;;;;;;;;;;2.82;100.00;100400.44;5099732;27;20431;-83
2021/04/02 00:05:57;;;;;;;;;;;;;;;2.89;100.00;100397.13;5095055;28;20329;-83
2021/04/02 00:08:23;;;;;;;;;;;;;;;2.89;100.00;100400.69;5096503;28;19977;-83
2021/04/02 00:10:52;;;;;;;;;;;;;;;2.90;100.00;100394.03;5096408;28;19923;-83
2021/04/02 00:13:19;;;;;;;;;;;;;;;2.91;100.00;100400.34;5105977;28;20018;-83
2021/04/02 00:15:48;;;;;;;;;;;;;;;2.90;100.00;100401.50;5116292;28;19924;-83
2021/04/02 00:18:16;;;;;;;;;;;;;;;2.91;100.00;100397.56;5096070;28;19923;-83
2021/04/02 00:20:43;;;;;;;;;;;;;;;2.92;100.00;100400.00;5113904;28;19924;-83
2021/04/02 00:23:10;;;;;;;;;;;;;;;2.96;100.00;100402.88;5114303;28;19923;-83
2021/04/02 00:25:36;;;;;;;;;;;;;;;3.01;100.00;100405.44;5127063;28;20085;-83
2021/04/02 00:28:04;;;;;;;;;;;;;;;3.03;100.00;100408.69;5116922;28;20026;-83
2021/04/02 00:30:38;;;;;;;;;;;;;;;2.98;100.00;100404.19;5123699;28;20004;-83
2021/04/02 00:33:05;;;;;;;;;;;;;;;2.99;100.00;100411.31;5073658;28;20314;-83
2021/04/02 00:35:32;;;;;;;;;;;;;;;2.94;100.00;100416.25;5102655;28;19923;-83
2021/04/02 00:37:59;;;;;;;;;;;;;;;2.96;100.00;100411.16;5124184;27;19924;-83
2021/04/02 00:40:28;;;;;;;;;;;;;;;2.91;100.00;100405.84;5114772;28;19931;-83
2021/04/02 00:42:55;;;;;;;;;;;;;;;2.93;100.00;100406.34;5111069;27;19923;-83
2021/04/02 00:45:22;;;;;;;;;;;;;;;2.94;100.00;100413.50;5117366;27;19930;-83
2021/04/02 00:47:52;;;;;;;;;;;;;;;2.94;100.00;100407.97;5109865;27;19930;-83
2021/04/02 00:50:37;;;;;;;;;;;;;;;2.94;100.00;100405.22;5118207;27;19923;-83
2021/04/02 00:53:04;;;;;;;;;;;;;;;2.95;100.00;100404.03;5110769;27;19927;-83
2021/04/02 00:55:31;;;;;;;;;;;;;;;2.93;100.00;100401.63;5120446;27;20426;-83
2021/04/02 00:57:58;;;;;;;;;;;;;;;2.92;100.00;100407.50;5120271;27;19923;-83
2021/04/02 01:00:25;;;;;;;;;;;;;;;2.90;100.00;100396.78;5122863;27;20081;-83
2021/04/02 01:02:53;;;;;;;;;;;;;;;2.91;100.00;100405.84;5117334;28;19928;-83
2021/04/02 01:05:25;;;;;;;;;;;;;;;2.91;100.00;100406.66;5082953;28;19923;-83
2021/04/02 01:07:54;;;;;;;;;;;;;;;2.88;100.00;100403.78;5113689;28;20073;-83
2021/04/02 01:10:21;;;;;;;;;;;;;;;2.88;100.00;100396.31;5113029;27;19928;-83
2021/04/02 01:12:54;;;;;;;;;;;;;;;2.93;100.00;100395.28;5103013;27;20335;-83
2021/04/02 01:15:23;;;;;;;;;;;;;;;2.91;100.00;100405.84;5090259;28;19924;-84
2021/04/02 01:17:53;;;;;;;;;;;;;;;2.94;100.00;100402.44;5082821;28;19924;-84
2021/04/02 01:20:22;;;;;;;;;;;;;;;2.92;100.00;100401.97;5111231;27;20277;-84
2021/04/02 01:22:51;;;;;;;;;;;;;;;2.91;100.00;100395.63;5084000;28;19924;-83
2021/04/02 01:25:50;;;;;;;;;;;;;;;2.93;100.00;100395.28;5108148;27;19923;-84
2021/04/02 01:28:27;;;;;;;;;;;;;;;3.00;100.00;100398.31;5041002;28;19928;-84
2021/04/02 01:30:55;;;;;;;;;;;;;;;2.98;100.00;100392.31;5031716;28;19960;-83
2021/04/02 01:33:23;;;;;;;;;;;;;;;2.92;100.00;100393.69;5018457;28;20415;-84
2021/04/02 01:35:54;;;;;;;;;;;;;;;2.84;100.00;100384.34;5021167;28;19925;-83
2021/04/02 01:38:30;;;;;;;;;;;;;;;2.84;100.00;100386.28;5037644;28;19925;-83
2021/04/02 01:41:00;;;;;;;;;;;;;;;2.84;100.00;100386.28;5056073;28;19925;-83
2021/04/02 01:43:31;;;;;;;;;;;;;;;2.83;100.00;100381.94;5036840;28;19931;-83
2021/04/02 01:45:58;;;;;;;;;;;;;;;2.83;100.00;100382.72;5053885;28;19925;-83
2021/04/02 01:48:27;;;;;;;;;;;;;;;2.84;100.00;100387.09;5057302;28;20018;-83
2021/04/02 01:50:54;;;;;;;;;;;;;;;2.90;100.00;100382.16;5049511;28;20414;-83
2021/04/02 01:53:24;;;;;;;;;;;;;;;2.89;100.00;100381.34;5077544;28;20015;-83
2021/04/02 01:55:53;;;;;;;;;;;;;;;2.87;100.00;100378.16;5079587;28;19924;-83
2021/04/02 01:58:22;;;;;;;;;;;;;;;2.91;100.00;100378.25;5048102;28;19931;-83
2021/04/02 02:00:51;;;;;;;;;;;;;;;2.93;100.00;100378.72;5076742;28;20453;-83
2021/04/02 02:03:24;;;;;;;;;;;;;;;2.98;100.00;100384.84;5077634;28;19924;-83
2021/04/02 02:05:55;;;;;;;;;;;;;;;2.98;100.00;100384.03;5078578;28;19978;-83
2021/04/02 02:08:34;;;;;;;;;;;;;;;2.95;100.00;100379.19;5062342;28;19931;-83
2021/04/02 02:11:01;;;;;;;;;;;;;;;2.97;100.00;100382.44;5081733;28;19931;-84
2021/04/02 02:13:29;;;;;;;;;;;;;;;2.99;100.00;100369.06;5076417;28;20297;-84
2021/04/02 02:16:06;;;;;;;;;;;;;;;2.95;100.00;100373.69;5073640;28;19924;-84
2021/04/02 02:18:36;;;;;;;;;;;;;;;2.99;100.00;100371.84;5081227;28;19931;-83
2021/04/02 02:21:05;;;;;;;;;;;;;;;3.00;100.00;100365.97;5098314;28;19923;-83
2021/04/02 02:23:32;;;;;;;;;;;;;;;2.95;100.00;100374.50;5116087;28;19931;-83
2021/04/02 02:26:04;;;;;;;;;;;;;;;2.92;100.00;100366.06;5094214;28;19930;-83
2021/04/02 02:28:32;;;;;;;;;;;;;;;2.95;100.00;100366.22;5063684;28;19923;-83
2021/04/02 02:31:00;;;;;;;;;;;;;;;2.89;100.00;100361.22;5097447;28;19924;-83
2021/04/02 02:33:36;;;;;;;;;;;;;;;2.89;100.00;100359.25;5097054;28;19931;-82
2021/04/02 02:36:12;;;;;;;;;;;;;;;2.89;100.00;100362.03;5087454;28;19955;-83
2021/04/02 02:38:41;;;;;;;;;;;;;;;2.93;100.00;100364.91;5094250;28;19924;-83
2021/04/02 02:41:08;;;;;;;;;;;;;;;2.82;100.00;100370.06;5099112;28;20428;-83
2021/04/02 02:43:37;;;;;;;;;;;;;;;2.81;100.00;100362.13;5077672;28;19924;-83
2021/04/02 02:46:04;;;;;;;;;;;;;;;2.82;100.00;100363.72;5079884;28;19924;-83
2021/04/02 02:48:30;;;;;;;;;;;;;;;2.82;100.00;100372.81;5110736;27;19923;-83
2021/04/02 02:50:59;;;;;;;;;;;;;;;2.80;100.00;100352.25;5117744;27;19930;-83
2021/04/02 02:53:28;;;;;;;;;;;;;;;2.79;100.00;100347.84;5090665;28;20366;-83
2021/04/02 02:55:58;;;;;;;;;;;;;;;2.81;100.00;100351.91;5095593;27;20420;-83
2021/04/02 02:58:29;;;;;;;;;;;;;;;2.81;100.00;100349.13;5104100;28;19931;-83
2021/04/02 03:00:56;;;;;;;;;;;;;;;2.81;100.00;100351.09;5083432;27;19927;-83
2021/04/02 03:03:25;;;;;;;;;;;;;;;2.83;100.00;100354.31;5091838;28;19931;-84
2021/04/02 03:05:57;;;;;;;;;;;;;;;2.86;100.00;100350.88;5092799;28;19951;-83
2021/04/02 03:08:37;;;;;;;;;;;;;;;2.85;100.00;100352.00;5090541;27;19937;-84
2021/04/02 03:11:07;;;;;;;;;;;;;;;2.90;100.00;100349.03;5081757;27;19924;-83
2021/04/02 03:13:35;;;;;;;;;;;;;;;2.95;100.00;100346.06;5127001;27;19924;-83
2021/04/02 03:16:01;;;;;;;;;;;;;;;2.91;100.00;100350.63;5111408;27;20007;-83
2021/04/02 03:18:29;;;;;;;;;;;;;;;2.87;100.00;100360.75;5080097;28;19924;-83
2021/04/02 03:20:59;;;;;;;;;;;;;;;2.86;100.00;100348.91;5097264;28;19958;-83
2021/04/02 03:23:27;;;;;;;;;;;;;;;2.91;100.00;100350.63;5096665;28;20018;-83
2021/04/02 03:25:56;;;;;;;;;;;;;;;2.91;100.00;100345.13;5115393;28;19934;-83
2021/04/02 03:28:23;;;;;;;;;;;;;;;2.88;100.00;100345.81;5093974;28;19931;-84
2021/04/02 03:30:54;;;;;;;;;;;;;;;2.85;100.00;100352.00;5096273;28;20290;-83
2021/04/02 03:33:29;;;;;;;;;;;;;;;2.85;100.00;100347.28;5092665;28;19967;-83
2021/04/02 03:36:14;;;;;;;;;;;;;;;2.86;100.00;100348.91;5086894;28;19924;-84
2021/04/02 03:38:44;;;;;;;;;;;;;;;2.89;100.00;100341.91;5115823;27;20293;-83
2021/04/02 03:41:15;;;;;;;;;;;;;;;2.87;100.00;100350.53;5116435;27;19923;-83
2021/04/02 03:43:45;;;;;;;;;;;;;;;2.89;100.00;100352.94;5068618;27;19927;-83
2021/04/02 03:46:14;;;;;;;;;;;;;;;2.88;100.00;100345.81;5106010;28;19971;-83
2021/04/02 03:48:44;;;;;;;;;;;;;;;2.89;100.00;100352.94;5093847;28;20374;-83
2021/04/02 03:51:14;;;;;;;;;;;;;;;2.89;100.00;100350.19;5099696;27;20298;-83
2021/04/02 03:53:46;;;;;;;;;;;;;;;2.88;100.00;100345.81;5100174;27;20275;-83
2021/04/02 03:56:16;;;;;;;;;;;;;;;2.86;100.00;100348.13;5096796;28;19923;-84
2021/04/02 03:58:45;;;;;;;;;;;;;;;2.87;100.00;100338.69;5114686;28;19923;-83
2021/04/02 04:01:15;;;;;;;;;;;;;;;2.86;100.00;100337.84;5079544;28;19924;-84
2021/04/02 04:03:44;;;;;;;;;;;;;;;2.85;100.00;100340.97;5107491;27;20507;-83
2021/04/02 04:06:15;;;;;;;;;;;;;;;2.83;100.00;100340.53;5095830;28;20371;-83
2021/04/02 04:08:43;;;;;;;;;;;;;;;2.83;100.00;100346.03;5069678;28;20367;-83
2021/04/02 04:11:14;;;;;;;;;;;;;;;2.83;100.00;100355.09;5084801;28;20371;-84
2021/04/02 04:13:42;;;;;;;;;;;;;;;2.96;100.00;100348.47;5099287;28;20395;-84
2021/04/02 04:16:12;;;;;;;;;;;;;;;2.94;100.00;100349.97;5083203;28;20275;-84
2021/04/02 04:18:41;;;;;;;;;;;;;;;2.92;100.00;100346.75;5063036;28;19924;-83
2021/04/02 04:21:09;;;;;;;;;;;;;;;2.92;100.00;100355.03;5095534;28;19931;-84
2021/04/02 04:23:46;;;;;;;;;;;;;;;2.93;100.00;100359.41;5096077;28;19924;-83
2021/04/02 04:26:13;;;;;;;;;;;;;;;2.90;100.00;100358.13;5095834;28;19923;-83
2021/04/02 04:28:40;;;;;;;;;;;;;;;2.94;100.00;100361.03;5096178;28;19924;-83
2021/04/02 04:31:09;;;;;;;;;;;;;;;2.92;100.00;100364.09;5114259;28;19924;-83
2021/04/02 04:33:37;;;;;;;;;;;;;;;2.93;100.00;100364.91;5100934;28;19931;-83
2021/04/02 04:36:05;;;;;;;;;;;;;;;2.94;100.00;100366.56;5134415;28;19959;-83
2021/04/02 04:38:33;;;;;;;;;;;;;;;2.94;100.00;100367.34;5098290;28;19981;-83
2021/04/02 04:41:01;;;;;;;;;;;;;;;3.03;100.00;100370.03;5096142;28;19938;-83
2021/04/02 04:43:29;;;;;;;;;;;;;;;2.95;100.00;100368.97;5095535;28;20374;-83
2021/04/02 04:45:56;;;;;;;;;;;;;;;2.95;100.00;100368.97;5113916;28;19928;-84
2021/04/02 04:48:22;;;;;;;;;;;;;;;3.01;100.00;100370.38;5113693;28;20014;-83
2021/04/02 04:50:49;;;;;;;;;;;;;;;3.01;100.00;100367.59;5117463;28;20018;-83
2021/04/02 04:53:17;;;;;;;;;;;;;;;3.00;100.00;100370.72;5113887;28;20000;-83
2021/04/02 04:55:44;;;;;;;;;;;;;;;3.01;100.00;100366.78;5077155;28;19923;-83
2021/04/02 04:58:12;;;;;;;;;;;;;;;3.00;100.00;100367.94;5091536;28;19931;-84
2021/04/02 05:00:40;;;;;;;;;;;;;;;3.02;100.00;100366.44;5092801;28;19923;-83
2021/04/02 05:03:08;;;;;;;;;;;;;;;3.02;100.00;100360.09;5119375;28;19931;-83
2021/04/02 05:05:36;;;;;;;;;;;;;;;3.02;100.00;100369.22;5116391;28;19930;-83
2021/04/02 05:08:05;;;;;;;;;;;;;;;2.99;100.00;100363.56;5115767;28;19923;-83
2021/04/02 05:10:32;;;;;;;;;;;;;;;3.02;100.00;100371.16;5115791;28;19923;-83
2021/04/02 05:13:00;;;;;;;;;;;;;;;2.97;100.00;100369.41;5081842;28;19931;-83
2021/04/02 05:15:27;;;;;;;;;;;;;;;2.95;100.00;100370.91;5112527;28;19935;-83
2021/04/02 05:17:55;;;;;;;;;;;;;;;2.93;100.00;100370.44;5115964;28;19930;-83
2021/04/02 05:20:42;;;;;;;;;;;;;;;2.92;100.00;100385.41;5115930;28;19935;-84
2021/04/02 05:23:09;;;;;;;;;;;;;;;2.89;100.00;100381.34;5099700;27;19972;-83
2021/04/02 05:25:36;;;;;;;;;;;;;;;2.89;100.00;100375.81;5109359;28;19928;-83
2021/04/02 05:28:03;;;;;;;;;;;;;;;2.94;100.00;100385.88;5099089;28;20428;-83
2021/04/02 05:30:30;;;;;;;;;;;;;;;2.90;100.00;100376.66;5102296;27;20360;-83
2021/04/02 05:32:57;;;;;;;;;;;;;;;2.90;100.00;100379.41;5116732;27;19927;-83
2021/04/02 05:35:23;;;;;;;;;;;;;;;2.89;100.00;100377.81;5127841;27;20339;-83
2021/04/02 05:37:50;;;;;;;;;;;;;;;2.88;100.00;100367.88;5098998;27;19923;-83
2021/04/02 05:40:17;;;;;;;;;;;;;;;2.87;100.00;100371.81;5114382;27;19931;-83
2021/04/02 05:42:52;;;;;;;;;;;;;;;2.87;100.00;100372.63;5088003;28;20359;-83
2021/04/02 05:45:19;;;;;;;;;;;;;;;2.85;100.00;100380.44;5104642;28;19923;-84
2021/04/02 05:47:48;;;;;;;;;;;;;;;2.83;100.00;100377.19;5095238;27;20440;-80
2021/04/02 05:50:25;;;;;;;;;;;;;;;2.81;100.00;100378.69;5099890;27;19923;-85
2021/04/02 05:52:54;;;;;;;;;;;;;;;2.82;100.00;100383.88;5103742;27;19930;-86
2021/04/02 05:55:21;;;;;;;;;;;;;;;2.81;100.00;100374.00;5074265;28;20001;-86
2021/04/02 05:57:48;;;;;;;;;;;;;;;2.77;100.00;100377.78;5113000;27;19930;-86
2021/04/02 06:00:16;;;;;;;;;;;;;;;2.75;100.00;100388.34;5103654;28;20010;-86
2021/04/02 06:02:43;;;;;;;;;;;;;;;2.69;100.00;100382.22;5115909;27;19931;-86
2021/04/02 06:05:10;;;;;;;;;;;;;;;2.67;100.00;100389.22;5095558;28;19930;-86
2021/04/02 06:07:37;;;;;;;;;;;;;;;2.67;100.00;100397.50;5086572;28;19935;-84
2021/04/02 06:10:05;;;;;;;;;;;;;;;2.65;100.00;100397.03;5073831;28;19923;-85
2021/04/02 06:12:35;;;;;;;;;;;;;;;2.66;100.00;100393.94;5080659;27;20397;-86
2021/04/02 06:15:05;;;;;;;;;;;;;;;2.70;100.00;100394.06;5080220;27;20349;-84
2021/04/02 06:17:51;;;;;;;;;;;;;;;2.72;100.00;100397.28;5107175;27;19931;-86
2021/04/02 06:20:18;;;;;;;;;;;;;;;2.79;100.00;100414.91;5063757;28;20545;-85
2021/04/02 06:22:48;;;;;;;;;;;;;;;2.83;100.00;100399.28;5084002;28;19939;-86
2021/04/02 06:25:17;;;;;;;;;;;;;;;2.87;100.00;100410.47;5077921;28;20290;-85
2021/04/02 06:27:51;;;;;;;;;;;;;;;2.88;100.00;100409.28;5091198;27;19967;-86
2021/04/02 06:30:19;;;;;;;;;;;;;;;2.94;100.00;100411.50;5062084;28;20034;-86
2021/04/02 06:32:49;;;;;;;;;;;;;;;2.95;100.00;100401.28;5044651;28;19931;-86
2021/04/02 06:35:15;;;;;;;;;;;;;;;2.94;100.00;100406.00;5076109;28;20030;-86
2021/04/02 06:37:42;;;;;;;;;;;;;;;2.93;100.00;100415.44;5078030;28;19924;-86
2021/04/02 06:40:14;;;;;;;;;;;;;;;2.92;100.00;100419.31;5082045;28;19931;-86
2021/04/02 06:42:42;;;;;;;;;;;;;;;2.94;100.00;100417.03;5087001;28;19924;-87
2021/04/02 06:45:09;;;;;;;;;;;;;;;2.97;100.00;100415.56;5103181;27;20301;-86
2021/04/02 06:47:43;;;;;;;;;;;;;;;2.97;100.00;100421.09;5108931;28;19949;-85
2021/04/02 06:50:19;;;;;;;;;;;;;;;2.95;100.00;100420.63;5087754;27;20275;-84
2021/04/02 06:52:51;;;;;;;;;;;;;;;3.04;100.00;100415.81;5087539;28;20290;-84
2021/04/02 06:55:19;;;;;;;;;;;;;;;3.01;100.00;100411.78;5080609;28;20061;-85
2021/04/02 06:57:47;;;;;;;;;;;;;;;3.13;100.00;100419.28;5096962;27;20006;-85
2021/04/02 07:00:20;;;;;;;;;;;;;;;3.14;100.00;100424.47;5069847;28;19958;-83
2021/04/02 07:02:48;;;;;;;;;;;;;;;3.10;100.00;100419.97;5099556;27;19928;-85
2021/04/02 07:05:18;;;;;;;;;;;;;;;3.11;100.00;100433.44;5115040;27;20382;-85
2021/04/02 07:07:47;;;;;;;;;;;;;;;3.17;100.00;100426.53;5078497;27;19985;-86
2021/04/02 07:10:14;;;;;;;;;;;;;;;3.15;100.00;100444.63;5087935;28;19924;-85
2021/04/02 07:12:43;;;;;;;;;;;;;;;3.12;100.00;100442.53;5086377;28;19924;-85
2021/04/02 07:15:11;;;;;;;;;;;;;;;3.23;100.00;100446.47;5096704;27;19931;-85
2021/04/02 07:17:38;;;;;;;;;;;;;;;3.31;100.00;100453.84;5106815;28;20007;-85
2021/04/02 07:20:07;;;;;;;;;;;;;;;3.35;100.00;100447.28;5082496;28;19927;-85
2021/04/02 07:22:34;;;;;;;;;;;;;;;3.51;100.00;100452.97;5079382;27;19928;-85
2021/04/02 07:25:02;;;;;;;;;;;;;;;3.52;100.00;100454.56;5079998;27;20014;-85
2021/04/02 07:27:29;;;;;;;;;;;;;;;3.54;100.00;100468.88;5094303;27;19924;-85
2021/04/02 07:29:57;;;;;;;;;;;;;;;3.49;100.00;100472.66;5132350;27;20487;-84
2021/04/02 07:32:24;;;;;;;;;;;;;;;3.55;100.00;100471.28;5111654;27;19946;-85
2021/04/02 07:34:50;;;;;;;;;;;;;;;3.57;100.00;100473.72;5122924;27;19924;-85
2021/04/02 07:37:18;;;;;;;;;;;;;;;3.56;100.00;100463.78;5066494;28;19924;-86
2021/04/02 07:39:46;;;;;;;;;;;;;;;3.61;100.00;100477.38;5111411;28;19962;-87
2021/04/02 07:42:13;;;;;;;;;;;;;;;3.65;100.00;100487.41;5093590;28;19924;-86
2021/04/02 07:44:44;;;;;;;;;;;;;;;3.56;100.00;100472.06;5082821;28;19928;-87
2021/04/02 07:47:12;;;;;;;;;;;;;;;3.68;100.00;100481.19;5075227;28;20298;-86
2021/04/02 07:49:41;;;;;;;;;;;;;;;3.77;100.00;100481.09;5100192;28;19957;-86
2021/04/02 07:52:08;;;;;;;;;;;;;;;3.72;100.00;100471.09;5093399;28;19931;-84
2021/04/02 07:54:36;;;;;;;;;;;;;;;3.81;100.00;100484.78;5111176;28;19924;-87
2021/04/02 07:57:04;;;;;;;;;;;;;;;3.91;100.00;100484.31;5088524;27;19924;-85
2021/04/02 07:59:43;;;;;;;;;;;;;;;3.87;100.00;100485.34;5063438;28;20298;-88
2021/04/02 08:02:10;;;;;;;;;;;;;;;4.17;100.00;100487.56;5058489;28;19925;-88
2021/04/02 08:04:48;;;;;;;;;;;;;;;4.09;100.00;100482.94;5090072;28;19928;-81
2021/04/02 08:07:16;;;;;;;;;;;;;;;4.12;100.00;100476.72;5095543;28;19928;-84
2021/04/02 08:09:48;;;;;;;;;;;;;;;4.36;100.00;100473.13;5061492;28;19924;-84
2021/04/02 08:12:32;;;;;;;;;;;;;;;4.54;100.00;100480.81;5082236;28;19924;-79
2021/04/02 08:15:05;;;;;;;;;;;;;;;4.65;100.00;100490.22;5092074;28;19962;-84
2021/04/02 08:17:32;;;;;;;;;;;;;;;4.88;100.00;100479.44;5127490;28;20526;-83
2021/04/02 08:20:02;;;;;;;;;;;;;;;5.50;100.00;100485.94;5080327;28;19924;-81
2021/04/02 08:22:30;;;;;;;;;;;;;;;5.73;100.00;100499.19;5104949;28;20401;-83
2021/04/02 08:25:23;;;;;;;;;;;;;;;5.72;100.00;100487.31;5102133;28;19949;-82
2021/04/02 08:27:50;;;;;;;;;;;;;;;5.06;100.00;100502.91;5114582;28;20385;-79
2021/04/02 08:30:17;;;;;;;;;;;;;;;4.70;100.00;100501.06;5133177;28;20481;-82
2021/04/02 08:32:45;;;;;;;;;;;;;;;4.78;100.00;100491.84;5103598;28;19928;-82
2021/04/02 08:35:13;;;;;;;;;;;;;;;4.61;100.00;100499.59;5109743;28;20271;-83
2021/04/02 08:37:55;;;;;;;;;;;;;;;4.82;100.00;100503.00;5089814;28;20069;-82
2021/04/02 08:40:22;;;;;;;;;;;;;;;5.26;100.00;100499.13;5115518;28;19930;-81
2021/04/02 08:42:49;;;;;;;;;;;;;;;6.41;100.00;100511.63;5095733;28;20034;-82
2021/04/02 08:45:18;;;;;;;;;;;;;;;5.83;100.00;100509.81;5113849;28;19930;-82
2021/04/02 08:47:46;;;;;;;;;;;;;;;6.09;100.00;100501.75;5104163;28;19927;-81
2021/04/02 08:50:12;;;;;;;;;;;;;;;5.96;100.00;100503.81;5099259;28;19924;-81
2021/04/02 08:52:40;;;;;;;;;;;;;;;6.37;100.00;100508.78;5109543;28;19924;-81
2021/04/02 08:55:07;;;;;;;;;;;;;;;5.98;100.00;100517.34;5121182;28;20032;-82
2021/04/02 08:57:35;;;;;;;;;;;;;;;6.20;100.00;100519.47;5105395;28;19976;-80
2021/04/02 09:00:07;;;;;;;;;;;;;;;6.11;100.00;100516.06;5097928;28;19923;-82
2021/04/02 09:02:35;;;;;;;;;;;;;;;6.23;100.00;100516.78;5081402;28;19977;-82
2021/04/02 09:05:04;;;;;;;;;;;;;;;5.54;100.00;100520.09;5098633;28;19923;-82
2021/04/02 09:07:55;;;;;;;;;;;;;;;5.51;100.00;100515.28;5116641;27;19924;-82
2021/04/02 09:10:21;;;;;;;;;;;;;;;5.75;100.00;100519.88;5098589;28;20026;-83
2021/04/02 09:12:49;;;;;;;;;;;;;;;5.62;100.00;100525.88;5081701;28;20001;-82
2021/04/02 09:15:30;;;;;;;;;;;;;;;5.21;100.00;100522.34;5117048;27;19928;-81
2021/04/02 09:18:13;;;;;;;;;;;;;;;5.36;100.00;100535.44;5124759;27;20351;-81
2021/04/02 09:20:40;;;;;;;;;;;;;;;5.42;100.00;100538.81;5097287;28;19930;-82
2021/04/02 09:23:09;;;;;;;;;;;;;;;5.55;100.00;100546.69;5117023;27;19982;-81
2021/04/02 09:25:43;;;;;;;;;;;;;;;5.03;100.00;100543.22;5098266;28;19939;-81
2021/04/02 09:28:09;;;;;;;;;;;;;;;4.87;100.00;100547.88;5100707;28;19942;-82
2021/04/02 09:30:37;;;;;;;;;;;;;;;4.89;100.00;100540.00;5122055;27;19927;-81
2021/04/02 09:33:05;;;;;;;;;;;;;;;4.95;100.00;100546.13;5098770;27;19923;-81
2021/04/02 09:35:32;;;;;;;;;;;;;;;5.15;100.00;100547.94;5116658;27;20428;-81
2021/04/02 09:38:00;;;;;;;;;;;;;;;5.20;100.00;100548.47;5101302;27;20022;-82
2021/04/02 09:40:27;;;;;;;;;;;;;;;5.17;100.00;100543.63;5116365;28;19924;-81
2021/04/02 09:42:54;;;;;;;;;;;;;;;5.45;100.00;100538.09;5120231;27;19923;-81
2021/04/02 09:45:25;;;;;;;;;;;;;;;5.39;100.00;100534.75;5102182;27;19930;-81
2021/04/02 09:47:52;;;;;;;;;;;;;;;5.45;100.00;100540.88;5071592;28;20067;-89
2021/04/02 09:50:20;;;;;;;;;;;;;;;5.48;100.00;100535.41;5086123;28;19973;-83
2021/04/02 09:52:47;;;;;;;;;;;;;;;5.78;100.00;100540.56;5074432;28;19953;-81
2021/04/02 09:55:14;;;;;;;;;;;;;;;6.03;100.00;100548.38;5075254;28;19982;-83
2021/04/02 09:57:41;;;;;;;;;;;;;;;5.62;100.00;100543.28;5074463;28;19931;-82
2021/04/02 10:00:09;;;;;;;;;;;;;;;5.48;100.00;100554.81;5063066;28;20450;-83
2021/04/02 10:02:38;;;;;;;;;;;;;;;5.72;100.00;100542.78;5075114;28;19932;-83
2021/04/02 10:05:07;;;;;;;;;;;;;;;5.94;100.00;100544.97;5092585;28;19924;-83
2021/04/02 10:07:34;;;;;;;;;;;;;;;5.92;100.00;100538.19;5064500;28;19924;-82
2021/04/02 10:10:01;;;;;;;;;;;;;;;5.93;100.00;100531.47;5079279;28;19960;-83
2021/04/02 10:12:28;;;;;;;;;;;;;;;5.77;100.00;100522.31;5063135;28;19931;-83
2021/04/02 10:14:55;;;;;;;;;;;;;;;5.57;100.00;100536.03;5075158;28;19924;-83
2021/04/02 10:17:27;;;;;;;;;;;;;;;5.98;100.00;100534.78;5081256;28;20007;-83
2021/04/02 10:19:54;;;;;;;;;;;;;;;5.56;100.00;100531.66;5080686;28;20508;-83
2021/04/02 10:22:21;;;;;;;;;;;;;;;5.78;100.00;100540.56;5073993;28;19924;-83
2021/04/02 10:24:48;;;;;;;;;;;;;;;6.24;100.00;100543.34;5092715;28;20298;-83
2021/04/02 10:27:15;;;;;;;;;;;;;;;6.11;100.00;100535.50;5079147;28;20422;-83
2021/04/02 10:29:42;;;;;;;;;;;;;;;6.15;100.00;100547.50;5075004;28;19928;-83
2021/04/02 10:32:09;;;;;;;;;;;;;;;6.23;100.00;100550.09;5100505;28;19927;-83
2021/04/02 10:34:36;;;;;;;;;;;;;;;6.17;100.00;100542.38;5080863;28;19931;-83
2021/04/02 10:37:03;;;;;;;;;;;;;;;6.29;100.00;100540.31;5083320;28;19931;-83
2021/04/02 10:39:29;;;;;;;;;;;;;;;6.30;100.00;100541.91;5079578;28;20602;-83
2021/04/02 10:41:56;;;;;;;;;;;;;;;6.42;100.00;100543.81;5096857;28;19980;-83
2021/04/02 10:44:23;;;;;;;;;;;;;;;6.48;100.00;100547.91;5091875;28;19935;-83
2021/04/02 10:46:49;;;;;;;;;;;;;;;6.52;100.00;100544.06;5103401;27;20356;-83
2021/04/02 10:49:16;;;;;;;;;;;;;;;6.59;100.00;100549.75;5080852;27;19946;-83
2021/04/02 10:51:43;;;;;;;;;;;;;;;6.62;100.00;100551.03;5090954;28;19923;-83
2021/04/02 10:54:10;;;;;;;;;;;;;;;6.45;100.00;100559.75;5091467;27;19930;-83
2021/04/02 10:56:37;;;;;;;;;;;;;;;6.45;100.00;100557.75;5094027;28;19928;-84
2021/04/02 10:59:04;;;;;;;;;;;;;;;6.76;100.00;100526.34;5096598;28;19965;-84
2021/04/02 11:01:31;;;;;;;;;;;;;;;6.96;100.00;100541.88;5119379;27;19924;-83
2021/04/02 11:03:57;;;;;;;;;;;;;;;7.07;100.00;100542.91;5125294;27;20378;-84
2021/04/02 11:06:24;;;;;;;;;;;;;;;6.95;100.00;100545.84;5113166;27;20007;-83
2021/04/02 11:08:50;;;;;;;;;;;;;;;7.19;100.00;100542.78;5105600;27;19934;-84
2021/04/02 11:11:17;;;;;;;;;;;;;;;7.44;100.00;100541.28;5114107;27;19927;-83
2021/04/02 11:13:45;;;;;;;;;;;;;;;7.26;100.00;100556.81;5094000;28;20370;-84
2021/04/02 11:16:12;;;;;;;;;;;;;;;7.28;100.00;100558.03;5103232;27;19923;-84
2021/04/02 11:18:41;;;;;;;;;;;;;;;7.52;100.00;100551.38;5082808;27;19982;-83
2021/04/02 11:21:08;;;;;;;;;;;;;;;7.66;100.00;100554.44;5113895;27;20018;-84
2021/04/02 11:23:35;;;;;;;;;;;;;;;7.84;100.00;100561.16;5079894;28;19923;-83
2021/04/02 11:26:30;;;;;;;;;;;;;;;7.81;100.00;100561.91;5111487;28;19951;-83
2021/04/02 11:28:56;;;;;;;;;;;;;;;8.19;100.00;100563.75;5093719;28;20008;-84
2021/04/02 11:31:27;;;;;;;;;;;;;;;8.00;100.00;100564.63;5089110;28;20007;-84
2021/04/02 11:34:00;;;;;;;;;;;;;;;7.85;100.00;100554.41;5079677;28;19924;-81
2021/04/02 11:36:27;;;;;;;;;;;;;;;7.97;100.00;100562.56;5111031;28;19924;-83
2021/04/02 11:38:53;;;;;;;;;;;;;;;8.05;100.00;100555.97;5112762;27;19924;-83
2021/04/02 11:41:20;;;;;;;;;;;;;;;7.81;100.00;100559.13;5127979;27;19923;-82
2021/04/02 11:43:47;;;;;;;;;;;;;;;7.47;100.00;100568.38;5110512;27;19928;-82
2021/04/02 11:46:14;;;;;;;;;;;;;;;7.54;100.00;100559.38;5090632;28;19924;-83
2021/04/02 11:48:40;;;;;;;;;;;;;;;7.76;100.00;100562.19;5103538;28;20286;-83
2021/04/02 11:51:07;;;;;;;;;;;;;;;7.88;100.00;100562.00;5082272;28;20652;-83
2021/04/02 11:53:33;;;;;;;;;;;;;;;7.95;100.00;100562.13;5107877;27;19965;-83
2021/04/02 11:56:00;;;;;;;;;;;;;;;7.93;100.00;100555.34;5098952;28;20362;-83
2021/04/02 11:58:27;;;;;;;;;;;;;;;7.85;100.00;100553.59;5096405;28;20267;-83
2021/04/02 12:00:53;;;;;;;;;;;;;;;7.91;100.00;100558.50;5114563;28;20359;-82
2021/04/02 12:03:21;;;;;;;;;;;;;;;8.36;100.00;100552.94;5104886;27;20018;-82
2021/04/02 12:05:48;;;;;;;;;;;;;;;8.37;100.00;100549.00;5099224;27;20287;-81
2021/04/02 12:08:16;;;;;;;;;;;;;;;8.03;100.00;100552.75;5079684;28;19924;-81
2021/04/02 12:10:44;;;;;;;;;;;;;;;8.01;100.00;100554.31;5118604;28;20375;-82
2021/04/02 12:13:28;;;;;;;;;;;;;;;7.93;100.00;100561.72;5115552;28;20420;-82
2021/04/02 12:15:54;;;;;;;;;;;;;;;8.23;100.00;100551.53;5130706;27;19930;-81
2021/04/02 12:18:21;;;;;;;;;;;;;;;8.24;100.00;100550.34;5119482;27;19924;-81
2021/04/02 12:20:48;;;;;;;;;;;;;;;8.23;100.00;100548.75;5097442;28;20256;-81
2021/04/02 12:23:15;;;;;;;;;;;;;;;8.19;100.00;100550.66;5105960;28;20354;-81
2021/04/02 12:25:42;;;;;;;;;;;;;;;8.43;100.00;100553.06;5108745;28;19970;-81
2021/04/02 12:28:09;;;;;;;;;;;;;;;8.67;100.00;100549.06;5124903;28;20005;-81
2021/04/02 12:30:35;;;;;;;;;;;;;;;8.69;100.00;100557.84;5122443;28;20367;-82
2021/04/02 12:33:02;;;;;;;;;;;;;;;8.55;100.00;100549.25;5087363;28;19924;-83
2021/04/02 12:35:29;;;;;;;;;;;;;;;8.74;100.00;100555.53;5131320;27;20374;-82
2021/04/02 12:37:56;;;;;;;;;;;;;;;8.69;100.00;100552.28;5133627;27;19954;-82
2021/04/02 12:40:23;;;;;;;;;;;;;;;8.29;100.00;100550.06;5107874;28;19931;-83
2021/04/02 12:42:50;;;;;;;;;;;;;;;8.36;100.00;100560.50;5132379;27;20374;-82
2021/04/02 12:45:17;;;;;;;;;;;;;;;8.12;100.00;100558.88;5088787;28;19973;-82